createdAt,value
2023-04-16T00:00:01.776Z,46.89289028204506
2023-04-16T00:15:01.449Z,47.29063091345608
2023-04-16T00:30:02.117Z,47.080924543851005
2023-04-16T00:45:01.906Z,47.38284723494776
2023-04-16T01:00:01.659Z,46.8706885112032
2023-04-16T01:15:01.395Z,47.53456741196596
2023-04-16T01:30:02.035Z,47.41850512190173
2023-04-16T01:45:01.704Z,48.28684131909058
2023-04-16T02:00:01.383Z,48.56249833404942
2023-04-16T02:15:02.064Z,48.27900017751959
2023-04-16T02:30:01.827Z,47.90813781442572
2023-04-16T02:45:01.536Z,47.58692995322817
2023-04-16T03:00:01.598Z,47.49650503535197
2023-04-16T03:15:02.290Z,47.98164518645695
2023-04-16T03:30:01.969Z,48.28391102497729
2023-04-16T03:45:01.628Z,48.074194244087465
2023-04-16T04:00:02.528Z,48.017684366910444
2023-04-16T04:15:01.822Z,47.248674290154504
2023-04-16T04:30:01.613Z,47.398257191018416
2023-04-16T04:45:02.247Z,47.23726454761216
2023-04-16T05:00:01.912Z,47.107000713657975
2023-04-16T05:15:01.590Z,47.15157871673733
2023-04-16T05:30:02.274Z,46.84274280913944
2023-04-16T05:45:01.941Z,46.154495284468084
2023-04-16T06:00:01.564Z,45.39763855255412
2023-04-16T06:15:02.222Z,44.379463408386776
2023-04-16T06:30:01.873Z,44.414529678322076
2023-04-16T06:45:01.610Z,44.297880637421855
2023-04-16T07:00:02.267Z,44.395702846838034
2023-04-16T07:15:01.928Z,42.65018487466259
2023-04-16T07:30:01.612Z,40.43380013661263
2023-04-16T07:45:01.349Z,39.67442656778197
2023-04-16T08:00:01.967Z,37.56605657032691
2023-04-16T08:15:01.654Z,37.73723871100377
2023-04-16T08:30:01.270Z,36.72548531299486
2023-04-16T08:45:01.902Z,37.37731856258655
2023-04-16T09:00:01.545Z,37.52126437543687
2023-04-16T09:15:02.213Z,37.39303853715516
2023-04-16T09:30:01.855Z,36.72120990265887
2023-04-16T09:45:04.124Z,37.11546099968342
2023-04-16T10:00:01.245Z,37.27719428227456
2023-04-16T10:15:01.821Z,37.62386865886172
2023-04-16T10:30:01.451Z,36.81397466459042
2023-04-16T10:45:02.152Z,36.023872062989476
2023-04-16T11:00:02.073Z,33.65317690053686
2023-04-16T11:15:01.817Z,31.423508722901804
2023-04-16T11:30:01.554Z,31.078335757587407
2023-04-16T11:45:02.204Z,33.872839629949894
2023-04-16T12:00:04.005Z,34.20601508912371
2023-04-16T12:15:01.697Z,34.10597333355402
2023-04-16T12:30:02.353Z,33.559538706435625
2023-04-16T12:45:01.959Z,33.47747299526379
2023-04-16T13:00:01.614Z,32.734022201617165
2023-04-16T13:15:02.223Z,35.174313166148536
2023-04-16T13:30:01.925Z,36.79502886496864
2023-04-16T13:45:01.612Z,33.27329387131356
2023-04-16T14:00:02.225Z,32.387324835756374
2023-04-16T14:15:01.866Z,33.84251357975837
2023-04-16T14:30:01.483Z,34.96331523804503
2023-04-16T14:45:02.071Z,34.05088892055103
2023-04-16T15:00:01.685Z,34.12769008436651
2023-04-16T15:15:01.333Z,36.91652476097223
2023-04-16T15:30:02.108Z,36.50573101198419
2023-04-16T15:45:01.806Z,36.11223881383147
2023-04-16T16:15:02.110Z,36.37941105536708
2023-04-16T16:30:01.820Z,37.53339829892027
2023-04-16T16:45:01.474Z,38.20996132833942
2023-04-16T17:00:02.112Z,38.55035774283609
2023-04-16T17:15:01.767Z,39.0750936955444
2023-04-16T17:30:01.448Z,39.66834945010037
2023-04-16T17:45:02.019Z,40.40392317922226
2023-04-16T18:00:01.651Z,40.9315156866688
2023-04-16T18:15:01.303Z,41.29222365095749
2023-04-16T18:30:04.048Z,41.42993477841588
2023-04-16T18:45:01.164Z,41.4758462947992
2023-04-16T19:00:02.143Z,41.5672848942612
2023-04-16T19:15:01.808Z,41.46389041948485
2023-04-16T19:30:01.622Z,41.09748831168872
2023-04-16T19:45:02.304Z,41.108938585548
2023-04-16T20:00:01.950Z,41.49826263132317
2023-04-16T20:15:01.666Z,41.97752813152511
2023-04-16T20:30:02.322Z,42.124739995533346
2023-04-16T20:45:01.968Z,42.653870767887575
2023-04-16T21:00:01.620Z,42.635764786272574
2023-04-16T21:15:02.313Z,42.72588581421849
2023-04-16T21:30:01.986Z,42.975170400946354
2023-04-16T21:45:01.640Z,42.88898234777892
2023-04-16T22:00:02.351Z,43.302641539399296
2023-04-16T22:15:03.081Z,43.114950925545884
2023-04-16T22:30:02.093Z,43.489258811535244
2023-04-16T22:45:01.728Z,43.595224233216065
2023-04-16T23:00:01.363Z,43.86559166778508
2023-04-16T23:15:02.000Z,43.85836785299176
2023-04-16T23:30:01.678Z,44.00991730983905
2023-04-16T23:45:01.450Z,44.16110744915319
